Time;durP1;ratioP1;P1;durP2;ratioP2;P2;SDS_P1;SDS_P2;PMS_P1;PMS_P2;Temp;Humidity;BMP_temperature;BMP_pressure;BME280_temperature;BME280_humidity;BME280_pressure;Samples;Min_cycle;Max_cycle;Signal;HPM_P1;HPM_P2
2023/10/03 03:52:41;;;;;;;5.93;3.62;;;;;;;11.79;100.00;101098.69;6189923;27;20178;-81
2023/10/03 03:55:45;;;;;;;8.07;3.78;;;;;;;11.83;100.00;101096.47;5415613;32;33445;-83
2023/10/03 03:58:48;;;;;;;8.82;3.30;;;;;;;11.86;100.00;101095.34;5414325;32;33432;-83
2023/10/03 04:01:51;;;;;;;7.43;3.78;;;;;;;11.81;100.00;101095.78;5414255;32;33507;-83
2023/10/03 04:04:56;;;;;;;6.28;3.58;;;;;;;11.75;100.00;101093.78;5413138;32;33523;-83
2023/10/03 04:07:59;;;;;;;10.77;4.68;;;;;;;11.72;100.00;101086.00;5414408;32;33121;-83
2023/10/03 04:11:05;;;;;;;5.53;3.55;;;;;;;11.73;100.00;101087.72;5415534;32;34215;-83
2023/10/03 04:14:08;;;;;;;12.00;4.78;;;;;;;11.73;100.00;101093.12;5415701;32;33349;-83
2023/10/03 04:17:15;;;;;;;6.07;3.87;;;;;;;11.66;100.00;101086.69;5414371;32;32917;-87
2023/10/03 04:23:21;;;;;;;4.65;3.28;;;;;;;11.66;100.00;101089.38;5414291;32;33261;-87
2023/10/03 04:26:25;;;;;;;9.32;3.85;;;;;;;11.64;100.00;101094.09;5413398;32;33412;-83
2023/10/03 04:29:29;;;;;;;8.10;4.30;;;;;;;11.64;100.00;101089.56;5414274;32;33913;-83
2023/10/03 04:32:32;;;;;;;11.32;4.25;;;;;;;11.67;100.00;101093.75;5414390;32;33154;-83
2023/10/03 04:35:35;;;;;;;9.10;4.15;;;;;;;11.65;100.00;101104.72;5414730;32;33408;-83
2023/10/03 04:38:40;;;;;;;12.32;4.68;;;;;;;11.62;100.00;101102.38;5414427;32;33629;-83
2023/10/03 04:41:44;;;;;;;12.57;5.03;;;;;;;11.66;100.00;101101.00;5415247;32;33185;-84
2023/10/03 04:44:47;;;;;;;10.73;4.82;;;;;;;11.68;100.00;101092.78;5415537;32;33070;-83
2023/10/03 04:47:52;;;;;;;9.05;4.72;;;;;;;11.71;100.00;101098.66;5402204;32;34287;-83
2023/10/03 04:50:56;;;;;;;13.32;5.35;;;;;;;11.73;100.00;101095.81;5417644;32;33728;-83
2023/10/03 04:53:59;;;;;;;8.55;4.18;;;;;;;11.72;100.00;101092.25;5418834;32;33284;-83
2023/10/03 04:57:02;;;;;;;8.90;3.87;;;;;;;11.70;100.00;101090.72;5419767;32;33541;-83
2023/10/03 05:00:06;;;;;;;10.63;4.53;;;;;;;11.67;100.00;101089.22;5417798;32;33087;-83
2023/10/03 05:03:10;;;;;;;8.40;3.70;;;;;;;11.69;100.00;101089.06;5421128;32;33280;-83
2023/10/03 05:06:13;;;;;;;11.80;4.28;;;;;;;11.71;100.00;101090.56;5422587;32;33256;-83
2023/10/03 05:09:17;;;;;;;10.25;4.15;;;;;;;11.73;100.00;101087.72;5402014;32;34247;-83
2023/10/03 05:12:24;;;;;;;10.07;4.78;;;;;;;11.79;100.00;101095.13;5414031;32;33474;-83
2023/10/03 05:15:27;;;;;;;7.72;4.10;;;;;;;11.78;100.00;101090.72;5401981;32;33405;-83
2023/10/03 05:18:30;;;;;;;10.35;4.50;;;;;;;11.84;100.00;101094.63;5411394;32;33037;-83
2023/10/03 05:21:33;;;;;;;9.20;4.32;;;;;;;11.89;100.00;101095.84;5383314;33;33422;-83
2023/10/03 05:24:37;;;;;;;8.85;4.03;;;;;;;11.97;100.00;101106.62;5397685;32;33522;-83
2023/10/03 05:27:42;;;;;;;9.60;4.25;;;;;;;12.05;100.00;101097.69;5388457;32;32958;-83
2023/10/03 05:30:45;;;;;;;8.15;4.20;;;;;;;12.07;100.00;101092.13;5407781;32;34648;-83
2023/10/03 05:33:49;;;;;;;10.18;4.40;;;;;;;12.17;100.00;101090.09;5401074;32;34613;-83
2023/10/03 05:36:53;;;;;;;10.25;5.05;;;;;;;12.24;100.00;101088.37;5397542;32;33410;-83
2023/10/03 05:39:57;;;;;;;9.98;5.37;;;;;;;12.37;100.00;101093.25;5394525;32;32853;-83
2023/10/03 05:43:03;;;;;;;12.63;5.78;;;;;;;12.50;100.00;101084.63;5407443;32;33554;-83
2023/10/03 05:46:10;;;;;;;16.17;5.12;;;;;;;12.57;100.00;101094.53;5406468;32;33424;-83
2023/10/03 05:49:13;;;;;;;12.48;4.87;;;;;;;12.83;100.00;101099.69;5391152;32;33650;-83
2023/10/03 05:52:16;;;;;;;10.15;5.05;;;;;;;12.96;100.00;101103.69;5411951;32;34059;-83
2023/10/03 05:55:20;;;;;;;9.70;4.50;;;;;;;13.07;100.00;101106.84;5410079;32;33192;-83
2023/10/03 05:58:23;;;;;;;11.82;4.90;;;;;;;13.19;100.00;101095.63;5400545;32;33793;-83
2023/10/03 06:01:26;;;;;;;9.20;4.80;;;;;;;13.30;100.00;101109.62;5395132;32;33622;-83
2023/10/03 06:04:33;;;;;;;10.20;4.40;;;;;;;13.43;100.00;101113.66;5412684;32;33299;-83
2023/10/03 06:07:36;;;;;;;15.88;5.12;;;;;;;13.54;100.00;101113.22;5401201;32;34112;-83
2023/10/03 06:10:39;;;;;;;10.63;5.15;;;;;;;13.71;100.00;101114.78;5393859;33;33073;-83
2023/10/03 06:13:44;;;;;;;8.32;4.75;;;;;;;13.86;100.00;101117.53;5392453;32;32989;-83
2023/10/03 06:16:47;;;;;;;11.85;4.70;;;;;;;13.96;100.00;101117.31;5404834;32;33393;-87
2023/10/03 06:19:51;;;;;;;10.85;4.82;;;;;;;14.11;100.00;101120.91;5395407;32;31759;-88
2023/10/03 06:22:55;;;;;;;9.98;4.72;;;;;;;14.21;100.00;101124.19;5397462;32;33294;-88
2023/10/03 06:26:01;;;;;;;16.95;4.70;;;;;;;14.38;100.00;101124.03;5385059;32;34965;-84
2023/10/03 06:29:05;;;;;;;13.75;5.20;;;;;;;14.49;100.00;101127.12;5389466;32;34079;-83
2023/10/03 06:32:10;;;;;;;11.70;5.05;;;;;;;14.64;100.00;101121.75;5415159;32;32998;-84
2023/10/03 06:35:14;;;;;;;13.45;4.87;;;;;;;14.80;100.00;101120.75;5402107;32;33432;-83
2023/10/03 06:38:18;;;;;;;11.85;4.82;;;;;;;14.93;100.00;101117.38;5385385;33;33539;-83
2023/10/03 06:41:22;;;;;;;8.77;3.85;;;;;;;15.09;100.00;101103.62;5403834;32;33070;-82
2023/10/03 06:44:25;;;;;;;6.68;3.95;;;;;;;15.23;100.00;101112.72;5403883;32;33991;-85
2023/10/03 06:47:29;;;;;;;8.65;3.83;;;;;;;15.31;100.00;101109.06;5401437;32;33525;-84
2023/10/03 06:50:33;;;;;;;9.07;4.10;;;;;;;15.42;100.00;101109.41;5416364;32;34263;-84
2023/10/03 06:53:36;;;;;;;8.65;4.00;;;;;;;15.56;100.00;101109.53;5393120;32;33290;-83
2023/10/03 06:56:41;;;;;;;5.90;3.70;;;;;;;15.72;100.00;101112.06;5419864;32;33103;-83
2023/10/03 06:59:44;;;;;;;11.32;4.40;;;;;;;15.86;100.00;101111.16;5408705;32;34190;-83
2023/10/03 07:02:48;;;;;;;11.57;4.75;;;;;;;15.96;100.00;101115.41;5405640;32;33789;-84
2023/10/03 07:05:53;;;;;;;11.12;4.12;;;;;;;16.14;100.00;101115.75;5417761;32;32933;-83
2023/10/03 07:08:56;;;;;;;6.15;4.15;;;;;;;16.21;100.00;101111.25;5399119;32;33666;-84
2023/10/03 07:12:00;;;;;;;11.15;5.25;;;;;;;16.25;100.00;101108.97;5415243;32;33401;-84
2023/10/03 07:15:09;;;;;;;8.80;4.78;;;;;;;16.50;98.43;101109.38;5414967;32;32913;-84
2023/10/03 07:18:12;;;;;;;10.48;4.97;;;;;;;16.70;99.03;101106.75;5415604;32;33532;-84
2023/10/03 07:21:15;;;;;;;10.95;4.55;;;;;;;16.97;95.44;101113.22;5405964;32;33810;-84
2023/10/03 07:24:20;;;;;;;9.27;4.90;;;;;;;16.96;97.74;101106.94;5420973;32;33365;-84
2023/10/03 07:27:23;;;;;;;9.80;4.45;;;;;;;17.12;97.59;101113.06;5399189;33;33599;-84
2023/10/03 07:30:26;;;;;;;10.10;4.20;;;;;;;17.22;97.55;101121.69;5394448;32;33247;-84
2023/10/03 07:33:31;;;;;;;12.93;5.45;;;;;;;17.34;96.94;101120.03;5398553;33;34378;-84
2023/10/03 07:36:35;;;;;;;8.82;4.97;;;;;;;17.44;95.54;101115.06;5410125;32;34047;-84
2023/10/03 07:39:39;;;;;;;10.52;4.72;;;;;;;17.51;95.92;101120.53;5416574;32;33850;-84
2023/10/03 07:42:43;;;;;;;8.35;4.45;;;;;;;17.66;94.70;101118.47;5403617;32;34059;-84
2023/10/03 07:45:46;;;;;;;8.20;4.95;;;;;;;17.68;93.08;101115.53;5407126;32;32885;-83
2023/10/03 07:48:52;;;;;;;9.90;5.03;;;;;;;17.84;93.47;101114.34;5403517;32;34255;-83
2023/10/03 07:51:59;;;;;;;7.85;4.75;;;;;;;17.93;92.79;101113.12;5408926;32;33005;-83
2023/10/03 07:55:03;;;;;;;9.65;4.28;;;;;;;18.11;91.15;101121.50;5404493;32;32851;-83
2023/10/03 07:58:07;;;;;;;11.52;5.15;;;;;;;18.09;92.60;101117.31;5419358;32;33357;-83
2023/10/03 08:01:13;;;;;;;10.80;5.15;;;;;;;18.13;91.06;101129.44;5422226;32;33878;-83
2023/10/03 08:04:17;;;;;;;10.68;5.57;;;;;;;18.38;91.40;101120.66;5396374;32;33527;-83
2023/10/03 08:07:23;;;;;;;10.95;4.53;;;;;;;18.59;89.29;101117.69;5420761;32;35013;-81
2023/10/03 08:10:29;;;;;;;6.15;3.97;;;;;;;18.72;88.03;101128.56;5415240;32;33433;-80
2023/10/03 08:13:32;;;;;;;8.63;4.82;;;;;;;18.84;88.84;101119.75;5403581;32;33290;-79
2023/10/03 08:16:46;;;;;;;10.02;4.82;;;;;;;19.12;89.98;101113.97;5418010;32;34345;-83
2023/10/03 08:19:49;;;;;;;10.10;4.97;;;;;;;19.31;88.22;101114.97;5433532;32;33934;-82
2023/10/03 08:22:52;;;;;;;16.08;4.90;;;;;;;19.47;87.95;101115.28;5419825;32;33285;-84
2023/10/03 08:26:01;;;;;;;9.27;4.40;;;;;;;19.58;87.09;101107.47;5409976;32;33400;-82
2023/10/03 08:29:05;;;;;;;11.40;4.72;;;;;;;19.75;85.90;101105.06;5404200;32;33364;-82
2023/10/03 08:32:09;;;;;;;11.43;5.07;;;;;;;19.64;88.04;101104.69;5410290;32;33496;-82
2023/10/03 08:35:12;;;;;;;11.73;4.97;;;;;;;19.82;85.36;101093.03;5417436;32;33485;-80
2023/10/03 08:38:19;;;;;;;13.27;4.80;;;;;;;20.04;86.71;101096.22;5406182;32;34049;-81
2023/10/03 08:41:35;;;;;;;12.40;5.03;;;;;;;20.16;87.24;101082.66;5428004;32;33327;-83
2023/10/03 08:44:51;;;;;;;10.30;4.78;;;;;;;20.12;84.12;101079.56;5424280;32;32801;-82
2023/10/03 08:48:05;;;;;;;11.20;4.62;;;;;;;20.27;84.11;101078.34;5430207;32;33404;-83
2023/10/03 08:51:13;;;;;;;11.40;5.43;;;;;;;20.57;84.08;101067.56;5434733;32;31899;-87
2023/10/03 08:54:17;;;;;;;7.85;4.55;;;;;;;20.77;83.40;101075.56;5415980;32;32778;-87
2023/10/03 08:57:23;;;;;;;9.00;4.72;;;;;;;20.87;80.98;101067.63;5425056;32;34370;-82
2023/10/03 09:00:26;;;;;;;10.65;4.90;;;;;;;20.98;80.89;101069.59;5420470;32;33502;-83
2023/10/03 09:03:46;;;;;;;9.23;4.72;;;;;;;21.10;81.68;101063.38;5402410;32;32297;-82
2023/10/03 09:06:50;;;;;;;11.82;4.57;;;;;;;21.36;80.02;101067.66;5423720;32;34809;-82
2023/10/03 09:09:53;;;;;;;14.15;5.45;;;;;;;21.36;80.63;101057.56;5421886;32;34404;-82
2023/10/03 09:13:03;;;;;;;12.32;5.05;;;;;;;21.45;79.12;101056.16;5412211;32;33901;-82
2023/10/03 09:16:08;;;;;;;9.70;4.40;;;;;;;21.57;80.13;101045.22;5406150;32;34549;-79
2023/10/03 09:19:12;;;;;;;8.13;4.45;;;;;;;21.80;79.87;101052.66;5403480;32;34034;-79
2023/10/03 09:22:31;;;;;;;8.65;4.45;;;;;;;21.93;79.16;101048.84;5432219;32;31955;-79
2023/10/03 09:25:39;;;;;;;8.02;4.40;;;;;;;21.88;78.22;101044.09;5407529;32;34416;-82
2023/10/03 09:28:43;;;;;;;14.45;5.12;;;;;;;22.04;77.59;101031.59;5419268;32;33267;-82
2023/10/03 09:31:47;;;;;;;13.62;5.07;;;;;;;22.03;78.05;101023.59;5405149;32;33469;-82
2023/10/03 09:34:57;;;;;;;8.98;4.62;;;;;;;22.23;78.00;101023.25;5415165;32;34559;-84
2023/10/03 09:38:05;;;;;;;8.52;4.60;;;;;;;22.42;77.87;101019.31;5425337;32;33206;-82
2023/10/03 09:41:16;;;;;;;9.80;4.75;;;;;;;22.46;78.52;101025.16;5425350;32;33409;-82
2023/10/03 09:44:29;;;;;;;9.65;4.15;;;;;;;22.83;77.21;101022.91;5409162;32;34994;-82
2023/10/03 09:47:34;;;;;;;10.18;4.25;;;;;;;23.12;75.50;101021.06;5420258;32;33379;-82
2023/10/03 09:50:53;;;;;;;9.50;4.32;;;;;;;23.13;74.88;101011.72;5401258;32;33359;-83
2023/10/03 09:53:58;;;;;;;9.82;3.85;;;;;;;23.28;74.07;101017.53;5415587;32;33819;-82
2023/10/03 09:57:15;;;;;;;9.55;4.10;;;;;;;23.41;74.72;101012.78;5413918;32;32827;-82
2023/10/03 10:00:38;;;;;;;10.98;3.67;;;;;;;23.57;72.79;101017.47;5403113;32;33375;-82
2023/10/03 10:03:46;;;;;;;7.87;3.90;;;;;;;23.64;72.82;101007.16;5420792;32;33035;-83
2023/10/03 10:07:16;;;;;;;6.82;3.97;;;;;;;23.62;71.40;101008.47;5417209;32;34253;-83
2023/10/03 10:10:19;;;;;;;9.77;4.05;;;;;;;23.69;69.97;101007.25;5431978;32;34203;-82
2023/10/03 10:13:22;;;;;;;8.70;3.62;;;;;;;23.79;70.91;101006.59;5414142;32;34126;-82
2023/10/03 10:16:28;;;;;;;8.60;3.75;;;;;;;23.91;70.30;101001.00;5403659;32;33314;-82
2023/10/03 10:20:12;;;;;;;8.57;4.18;;;;;;;24.04;70.16;101000.66;5391736;32;33849;-82
2023/10/03 10:23:16;;;;;;;7.37;3.53;;;;;;;24.30;68.12;100990.00;5407907;32;33237;-83
2023/10/03 10:26:30;;;;;;;7.68;3.60;;;;;;;24.45;66.70;100982.00;5422507;32;33724;-83
2023/10/03 10:29:57;;;;;;;9.13;3.53;;;;;;;24.62;66.95;100985.50;5424332;32;33280;-83
2023/10/03 10:33:18;;;;;;;6.90;3.72;;;;;;;24.78;65.47;100977.47;5435464;32;34502;-83
2023/10/03 10:36:22;;;;;;;6.87;3.40;;;;;;;24.72;65.76;100975.75;5425619;32;33256;-83
2023/10/03 10:39:53;;;;;;;7.12;3.22;;;;;;;25.09;64.00;100979.44;5433848;32;33298;-83
2023/10/03 10:42:59;;;;;;;9.65;3.67;;;;;;;25.29;66.72;100954.03;5420930;32;33219;-80
2023/10/03 10:46:57;;;;;;;6.93;3.30;;;;;;;25.36;65.96;100958.50;5430198;32;33482;-82
2023/10/03 10:50:01;;;;;;;;;;;;;;;25.58;61.70;100953.72;5379524;32;33937;-84
2023/10/03 10:53:37;;;;;;;8.05;3.22;;;;;;;25.91;59.59;100949.00;5425258;32;33127;-84
2023/10/03 10:56:41;;;;;;;11.12;3.53;;;;;;;26.09;57.92;100953.25;5433009;32;33294;-83
2023/10/03 10:59:45;;;;;;;6.20;3.40;;;;;;;26.21;56.81;100953.91;5436016;32;33303;-84
2023/10/03 11:02:49;;;;;;;6.65;2.80;;;;;;;25.77;56.94;100943.13;5422936;32;33670;-85
2023/10/03 11:05:52;;;;;;;7.65;3.15;;;;;;;26.10;56.07;100941.16;5425752;32;32978;-84
2023/10/03 11:08:55;;;;;;;4.68;2.72;;;;;;;26.28;55.45;100940.69;5400742;32;33389;-84
2023/10/03 11:11:58;;;;;;;7.57;2.80;;;;;;;26.63;53.62;100941.94;5432607;32;33507;-84
2023/10/03 11:15:01;;;;;;;5.62;2.37;;;;;;;26.91;51.94;100924.91;5393167;32;34345;-84
2023/10/03 11:18:04;;;;;;;5.57;2.87;;;;;;;27.19;51.56;100916.38;5424296;32;33181;-84
2023/10/03 11:21:10;;;;;;;3.60;2.28;;;;;;;27.56;50.73;100914.16;5403045;32;33692;-84
2023/10/03 11:24:13;;;;;;;6.47;2.92;;;;;;;27.98;49.11;100906.62;5400466;32;33426;-84
2023/10/03 11:27:24;;;;;;;4.22;2.05;;;;;;;28.54;47.26;100905.59;5414333;32;33006;-84
2023/10/03 11:30:28;;;;;;;7.03;2.12;;;;;;;29.16;43.85;100904.09;5407590;32;33994;-84
2023/10/03 11:33:41;;;;;;;6.95;2.60;;;;;;;29.12;43.59;100922.44;5402043;32;32959;-84
2023/10/03 11:36:45;;;;;;;4.62;2.50;;;;;;;29.47;42.04;100904.66;5418505;32;34005;-81
2023/10/03 11:39:48;;;;;;;3.37;2.37;;;;;;;30.04;41.35;100902.16;5441355;32;33245;-81
2023/10/03 11:43:03;;;;;;;7.22;2.33;;;;;;;31.04;36.51;100899.47;5429054;32;33351;-81
2023/10/03 11:46:08;;;;;;;4.45;2.80;;;;;;;32.36;33.02;100889.81;5420760;32;33571;-82
2023/10/03 11:49:11;;;;;;;2.80;1.92;;;;;;;33.13;31.50;100884.13;5410536;32;33938;-81
2023/10/03 11:52:14;;;;;;;4.03;2.10;;;;;;;34.08;29.41;100883.84;5426964;32;33512;-82
2023/10/03 11:55:19;;;;;;;6.78;1.83;;;;;;;33.94;30.12;100887.87;5410207;32;32833;-82
2023/10/03 11:58:22;;;;;;;3.92;2.10;;;;;;;34.88;28.15;100874.44;5418994;32;33010;-85
2023/10/03 12:01:29;;;;;;;4.65;2.20;;;;;;;35.41;28.13;100867.59;5407870;32;34603;-82
2023/10/03 12:04:34;;;;;;;3.67;1.60;;;;;;;36.83;26.33;100857.78;5433040;32;33404;-82
2023/10/03 12:07:39;;;;;;;4.85;2.33;;;;;;;37.30;25.12;100848.28;5433553;32;33510;-81
2023/10/03 12:10:43;;;;;;;7.40;2.00;;;;;;;37.76;24.73;100855.47;5419179;32;33555;-82
2023/10/03 12:13:46;;;;;;;3.55;2.25;;;;;;;37.97;24.22;100848.94;5419919;32;33838;-82
2023/10/03 12:16:52;;;;;;;5.50;1.85;;;;;;;38.14;23.88;100845.06;5405029;32;34317;-82
2023/10/03 12:19:55;;;;;;;4.78;2.05;;;;;;;38.51;23.29;100846.66;5403156;32;33089;-82
2023/10/03 12:23:04;;;;;;;3.37;2.05;;;;;;;38.19;23.36;100845.62;5416305;32;33218;-82
2023/10/03 12:26:22;;;;;;;3.10;1.95;;;;;;;37.67;23.73;100837.91;5422451;32;34164;-82
2023/10/03 12:29:32;;;;;;;3.42;1.73;;;;;;;37.39;24.58;100826.50;5413109;32;33444;-82
2023/10/03 12:32:35;;;;;;;4.70;1.92;;;;;;;39.65;22.24;100818.03;5428646;32;34267;-82
2023/10/03 12:35:40;;;;;;;3.47;1.73;;;;;;;40.25;21.21;100817.88;5416867;32;33605;-83
2023/10/03 12:38:43;;;;;;;2.15;1.90;;;;;;;38.81;22.27;100818.16;5418374;32;34173;-82
2023/10/03 12:41:46;;;;;;;4.37;2.25;;;;;;;39.22;22.02;100818.91;5395815;32;33348;-82
2023/10/03 12:44:50;;;;;;;3.17;2.00;;;;;;;38.90;22.39;100809.59;5411327;32;33658;-82
2023/10/03 12:47:54;;;;;;;3.78;2.03;;;;;;;39.24;21.83;100816.53;5414364;32;33457;-82
2023/10/03 12:50:57;;;;;;;3.50;2.03;;;;;;;39.65;21.91;100801.09;5432128;32;34324;-83
2023/10/03 12:54:00;;;;;;;3.80;2.05;;;;;;;40.86;20.45;100809.84;5410965;32;34120;-83
2023/10/03 12:57:05;;;;;;;3.50;1.70;;;;;;;40.27;20.63;100801.38;5420636;32;33536;-83
2023/10/03 13:00:09;;;;;;;3.17;2.25;;;;;;;39.62;21.76;100798.22;5419265;32;33719;-83
2023/10/03 13:03:12;;;;;;;3.33;1.95;;;;;;;38.61;22.53;100794.66;5420089;32;33013;-83
2023/10/03 13:06:19;;;;;;;3.58;1.92;;;;;;;36.79;24.16;100789.47;5402002;32;32980;-80
2023/10/03 13:09:22;;;;;;;3.75;1.95;;;;;;;36.07;25.27;100789.56;5414851;32;34429;-80
2023/10/03 13:12:25;;;;;;;3.17;1.70;;;;;;;36.67;24.74;100776.22;5412311;32;33077;-80
2023/10/03 13:15:27;;;;;;;3.17;1.87;;;;;;;35.47;26.14;100790.66;5413832;32;34086;-83
2023/10/03 13:18:31;;;;;;;3.67;2.40;;;;;;;34.50;27.58;100779.97;5406195;32;33636;-82
2023/10/03 13:21:36;;;;;;;6.07;1.75;;;;;;;33.38;29.11;100778.56;5404854;32;34060;-84
2023/10/03 13:24:39;;;;;;;5.70;1.98;;;;;;;32.04;30.73;100783.75;5415246;32;33928;-83
2023/10/03 13:27:42;;;;;;;5.78;2.17;;;;;;;31.31;32.36;100763.22;5420000;32;33486;-83
2023/10/03 13:30:46;;;;;;;4.35;2.08;;;;;;;30.69;33.03;100762.66;5418094;32;33116;-84
2023/10/03 13:33:49;;;;;;;4.22;2.35;;;;;;;29.71;35.53;100767.94;5404019;32;33530;-83
2023/10/03 13:36:53;;;;;;;4.95;2.15;;;;;;;29.43;36.18;100773.22;5417461;32;32992;-84
2023/10/03 13:39:56;;;;;;;7.30;2.67;;;;;;;28.63;37.61;100757.88;5404523;32;34078;-84
2023/10/03 13:43:03;;;;;;;4.37;2.35;;;;;;;28.39;38.51;100746.66;5411220;32;33067;-84
2023/10/03 13:46:05;;;;;;;7.32;2.58;;;;;;;27.71;39.16;100743.72;5412243;32;33235;-84
2023/10/03 13:49:09;;;;;;;8.43;2.45;;;;;;;27.00;41.60;100742.81;5426122;32;33420;-84
2023/10/03 13:52:13;;;;;;;5.37;2.03;;;;;;;26.78;41.80;100745.84;5408948;32;34080;-85
2023/10/03 13:55:40;;;;;;;4.97;2.10;;;;;;;26.38;42.73;100741.09;5411466;32;33567;-83
2023/10/03 13:58:43;;;;;;;7.55;2.37;;;;;;;26.03;43.75;100745.44;5409356;32;33928;-85
2023/10/03 14:01:46;;;;;;;3.70;2.12;;;;;;;25.76;44.31;100742.84;5409435;32;33918;-84
2023/10/03 14:04:50;;;;;;;4.62;1.98;;;;;;;25.71;45.33;100740.06;5409939;32;33722;-83
2023/10/03 14:07:53;;;;;;;4.07;2.17;;;;;;;25.55;44.60;100737.25;5431525;32;33183;-84
2023/10/03 14:10:56;;;;;;;6.70;2.37;;;;;;;25.28;46.29;100744.84;5421292;32;33215;-85
2023/10/03 14:14:10;;;;;;;3.05;1.95;;;;;;;25.16;46.35;100742.28;5421805;32;33268;-84
2023/10/03 14:17:13;;;;;;;3.10;1.98;;;;;;;24.98;47.27;100737.16;5417263;32;34436;-84
2023/10/03 14:20:16;;;;;;;5.90;2.40;;;;;;;25.00;46.90;100743.25;5416511;32;33415;-84
2023/10/03 14:23:20;;;;;;;5.35;2.20;;;;;;;24.86;47.40;100745.63;5417270;32;33494;-84
2023/10/03 14:26:24;;;;;;;4.32;2.35;;;;;;;24.74;47.81;100736.72;5419197;32;32921;-85
2023/10/03 14:29:28;;;;;;;4.60;2.60;;;;;;;24.68;48.05;100733.09;5416343;32;33078;-84
2023/10/03 14:32:31;;;;;;;6.18;2.60;;;;;;;24.61;48.22;100733.31;5423094;32;32869;-85
2023/10/03 14:35:34;;;;;;;7.10;2.55;;;;;;;24.57;47.90;100723.94;5421980;32;34056;-85
2023/10/03 14:38:36;;;;;;;6.00;2.33;;;;;;;24.38;48.60;100723.44;5421653;32;33525;-85
2023/10/03 14:41:39;;;;;;;5.70;1.98;;;;;;;24.42;48.86;100718.25;5408013;32;33909;-84
2023/10/03 14:44:42;;;;;;;5.45;2.10;;;;;;;24.31;49.51;100713.78;5418134;32;33364;-84
2023/10/03 14:47:45;;;;;;;4.25;2.37;;;;;;;24.23;49.11;100716.97;5417175;32;33413;-83
2023/10/03 14:50:48;;;;;;;3.53;2.30;;;;;;;24.16;49.24;100709.78;5430795;32;34545;-83
2023/10/03 14:53:52;;;;;;;3.65;1.87;;;;;;;24.17;49.38;100722.44;5410797;32;33413;-84
2023/10/03 14:56:59;;;;;;;8.00;2.50;;;;;;;24.10;49.80;100713.56;5416095;32;33835;-80
2023/10/03 15:00:05;;;;;;;5.47;2.33;;;;;;;24.08;49.70;100706.66;5432965;32;34308;-83
2023/10/03 15:03:09;;;;;;;4.43;2.47;;;;;;;24.08;50.01;100710.22;5426622;32;33108;-84
2023/10/03 15:06:13;;;;;;;4.68;2.10;;;;;;;23.94;50.41;100714.47;5426783;32;33350;-83
2023/10/03 15:09:16;;;;;;;6.82;2.45;;;;;;;23.88;51.04;100712.78;5427708;32;33373;-84
2023/10/03 15:12:19;;;;;;;3.47;2.33;;;;;;;23.79;51.00;100717.91;5416922;32;33208;-84
2023/10/03 15:15:23;;;;;;;5.53;2.25;;;;;;;23.80;51.25;100718.72;5417050;32;33329;-83
2023/10/03 15:18:29;;;;;;;2.47;2.12;;;;;;;23.69;51.91;100703.97;5422948;32;155099;-82
2023/10/03 15:21:33;;;;;;;6.85;2.00;;;;;;;23.60;51.94;100698.09;5416846;32;34255;-82
2023/10/03 15:24:37;;;;;;;4.90;2.30;;;;;;;23.54;51.75;100704.63;5416634;32;32893;-82
2023/10/03 15:27:40;;;;;;;2.92;2.05;;;;;;;23.45;52.27;100697.94;5417084;32;33209;-82
2023/10/03 15:30:45;;;;;;;4.80;2.33;;;;;;;23.43;52.30;100692.69;5417048;32;33182;-82
2023/10/03 15:33:48;;;;;;;6.95;2.50;;;;;;;23.46;52.63;100696.84;5417050;32;34898;-83
2023/10/03 15:36:52;;;;;;;5.15;2.17;;;;;;;23.34;53.06;100693.38;5430831;32;34413;-83
2023/10/03 15:39:56;;;;;;;8.45;2.47;;;;;;;23.33;53.13;100689.81;5428257;32;34227;-82
2023/10/03 15:43:01;;;;;;;6.90;2.50;;;;;;;23.28;53.44;100687.84;5416821;32;33448;-82
2023/10/03 15:46:05;;;;;;;7.03;2.30;;;;;;;23.18;53.87;100692.34;5403524;32;32148;-83
2023/10/03 15:49:09;;;;;;;3.33;2.03;;;;;;;23.09;54.16;100689.22;5416645;32;33177;-82
